Time;durP1;ratioP1;P1;durP2;ratioP2;P2;SDS_P1;SDS_P2;PMS_P1;PMS_P2;Temp;Humidity;BMP_temperature;BMP_pressure;BME280_temperature;BME280_humidity;BME280_pressure;Samples;Min_cycle;Max_cycle;Signal;HPM_P1;HPM_P2
2022/04/04 00:06:12;;;;;;;5.22;2.37;;;;;;;2.52;48.57;100872.91;18370753;32;20093;-64
2022/04/04 00:16:16;;;;;;;5.80;2.60;;;;;;;2.50;49.25;100885.72;18370596;32;20097;-64
2022/04/04 00:26:21;;;;;;;6.07;2.42;;;;;;;2.52;49.21;100883.22;18370159;32;20112;-64
2022/04/04 00:36:24;;;;;;;6.50;3.08;;;;;;;2.02;51.69;100886.44;18369635;32;20101;-64
2022/04/04 00:46:29;;;;;;;2.78;2.00;;;;;;;1.91;53.58;100898.00;18370934;32;20143;-64
2022/04/04 00:56:33;;;;;;;5.00;2.30;;;;;;;1.61;53.50;100895.88;18369402;32;20154;-64
2022/04/04 01:06:38;;;;;;;3.77;2.03;;;;;;;1.49;55.20;100891.97;18369433;32;20097;-64
2022/04/04 01:16:41;;;;;;;3.92;2.53;;;;;;;1.43;55.74;100889.16;18368741;32;20154;-64
2022/04/04 01:26:48;;;;;;;3.17;2.20;;;;;;;1.24;57.12;100896.09;18369108;32;20124;-64
2022/04/04 01:36:51;;;;;;;3.93;1.87;;;;;;;0.92;57.13;100898.09;18369089;32;20138;-64
2022/04/04 01:46:56;;;;;;;4.68;2.45;;;;;;;1.50;56.34;100896.31;18368478;32;20386;-64
2022/04/04 01:56:59;;;;;;;4.57;2.10;;;;;;;1.34;57.65;100910.22;18367583;32;20266;-64
2022/04/04 02:07:05;;;;;;;3.10;2.07;;;;;;;0.80;59.77;100905.25;18367126;32;20101;-64
2022/04/04 02:17:09;;;;;;;3.23;2.30;;;;;;;0.99;58.60;100916.38;18366671;32;20097;-64
2022/04/04 02:27:13;;;;;;;3.30;1.90;;;;;;;0.86;60.06;100913.25;18365641;32;20115;-64
2022/04/04 02:37:17;;;;;;;6.00;2.30;;;;;;;0.70;60.80;100906.50;18364899;32;20382;-64
2022/04/04 02:47:22;;;;;;;3.20;1.97;;;;;;;0.75;59.45;100911.84;18335439;32;20523;-64
2022/04/04 02:57:25;;;;;;;4.57;2.27;;;;;;;0.41;61.50;100914.63;18363483;32;20187;-64
2022/04/04 03:07:30;;;;;;;5.63;2.50;;;;;;;0.37;61.68;100925.53;18363738;32;20495;-64
2022/04/04 03:17:33;;;;;;;3.50;2.30;;;;;;;0.43;61.51;100934.34;18341480;32;20101;-64
2022/04/04 03:27:39;;;;;;;5.90;3.17;;;;;;;0.22;62.58;100928.25;18321846;32;20098;-64
2022/04/04 03:37:44;;;;;;;8.23;2.90;;;;;;;0.29;61.62;100928.56;18325884;32;20197;-68
2022/04/04 03:47:49;;;;;;;5.57;2.80;;;;;;;0.25;62.55;100937.81;18345179;32;20118;-64
2022/04/04 03:57:53;;;;;;;6.23;2.33;;;;;;;0.02;63.35;100929.88;18369153;32;20442;-65
2022/04/04 04:07:57;;;;;;;3.67;2.10;;;;;;;-0.25;63.52;100939.63;18369310;32;20116;-64
2022/04/04 04:18:00;;;;;;;5.27;2.53;;;;;;;-0.16;63.46;100946.09;18338286;32;20139;-64
2022/04/04 04:28:06;;;;;;;8.03;2.80;;;;;;;-0.24;64.20;100944.84;18338129;32;20108;-64
2022/04/04 04:38:10;;;;;;;4.67;2.13;;;;;;;-0.05;63.18;100950.91;18352271;32;77763;-64
2022/04/04 04:48:15;;;;;;;8.27;3.27;;;;;;;-0.11;64.53;100951.47;18338354;32;20144;-64
2022/04/04 04:58:18;;;;;;;7.60;3.37;;;;;;;0.04;64.48;100950.47;18361462;32;20092;-64
2022/04/04 05:08:23;;;;;;;4.90;2.50;;;;;;;0.12;62.66;100957.75;18354658;32;20093;-65
2022/04/04 05:18:27;;;;;;;7.83;3.77;;;;;;;1.14;61.22;100959.88;18326577;32;20120;-65
2022/04/04 05:28:31;;;;;;;6.62;3.03;;;;;;;1.94;59.88;100965.97;18341642;32;20434;-64
2022/04/04 05:38:34;;;;;;;6.90;3.42;;;;;;;3.15;56.01;100979.25;18346279;32;20127;-64
2022/04/04 05:48:39;;;;;;;8.80;3.47;;;;;;;5.13;47.19;100964.28;18332090;32;20112;-66
2022/04/04 05:58:42;;;;;;;6.68;3.65;;;;;;;8.22;40.23;100974.75;18366595;32;20086;-65
2022/04/04 06:08:47;;;;;;;11.52;4.57;;;;;;;10.00;35.76;100975.34;18366974;32;20470;-65
2022/04/04 06:18:51;;;;;;;11.48;4.25;;;;;;;12.30;31.87;100971.22;18363472;32;20656;-65
2022/04/04 06:28:55;;;;;;;7.95;3.50;;;;;;;15.40;25.88;100966.59;18365688;32;20357;-66
2022/04/04 06:38:59;;;;;;;7.28;2.90;;;;;;;17.53;22.45;100976.13;18364806;32;20089;-66
2022/04/04 06:49:03;;;;;;;8.55;3.42;;;;;;;19.10;20.36;100961.66;18358744;32;20125;-66
2022/04/04 06:59:06;;;;;;;8.52;3.30;;;;;;;17.00;22.12;100971.03;18364162;32;20121;-65
2022/04/04 07:09:11;;;;;;;7.78;3.28;;;;;;;14.85;24.47;100976.91;18347725;32;20145;-68
2022/04/04 07:19:16;;;;;;;5.93;2.75;;;;;;;14.18;24.77;100979.22;18347446;32;20094;-67
2022/04/04 07:29:21;;;;;;;5.55;2.83;;;;;;;13.81;25.36;100985.63;18360285;32;20148;-68
2022/04/04 07:39:24;;;;;;;7.12;3.17;;;;;;;16.27;22.07;100970.62;18358939;32;20094;-68
2022/04/04 07:49:29;;;;;;;5.35;2.85;;;;;;;17.77;19.89;100957.12;18341824;32;20470;-67
2022/04/04 07:59:32;;;;;;;5.30;2.65;;;;;;;13.67;22.98;100975.19;18369819;32;20414;-67
2022/04/04 08:09:37;;;;;;;6.70;3.05;;;;;;;11.72;23.54;100982.47;18368397;32;20097;-67
2022/04/04 08:19:40;;;;;;;5.15;2.95;;;;;;;11.35;24.10;100983.22;18354113;32;20101;-66
2022/04/04 08:29:45;;;;;;;4.32;2.37;;;;;;;10.28;26.23;100980.78;18317944;32;20097;-67
2022/04/04 08:39:49;;;;;;;4.60;2.70;;;;;;;10.12;27.46;100959.78;18368986;32;20101;-67
2022/04/04 08:49:54;;;;;;;5.53;2.40;;;;;;;10.71;26.75;100948.03;18349936;32;20133;-68
2022/04/04 08:59:57;;;;;;;4.87;2.30;;;;;;;10.17;27.79;100935.47;18354256;32;20100;-67
2022/04/04 09:10:02;;;;;;;7.40;2.95;;;;;;;10.26;27.82;100930.34;18363431;32;20129;-67
2022/04/04 09:20:10;;;;;;;5.45;2.58;;;;;;;10.17;26.70;100917.22;18369077;32;20094;-66
2022/04/04 09:30:22;;;;;;;6.30;2.78;;;;;;;10.84;27.07;100897.66;18354109;32;20089;-67
2022/04/04 09:40:27;;;;;;;5.03;2.60;;;;;;;11.68;25.61;100890.06;18367577;32;20366;-67
2022/04/04 09:50:38;;;;;;;6.78;2.87;;;;;;;13.15;22.92;100862.69;18362415;32;20112;-67
2022/04/04 10:00:48;;;;;;;7.05;2.70;;;;;;;14.41;22.38;100853.84;18366051;32;20102;-67
2022/04/04 10:10:53;;;;;;;4.78;2.40;;;;;;;14.73;20.45;100840.37;18366316;32;20078;-67
2022/04/04 10:20:57;;;;;;;4.95;2.40;;;;;;;15.38;21.53;100819.31;18364239;32;20191;-68
2022/04/04 10:31:12;;;;;;;4.40;2.17;;;;;;;17.32;17.08;100793.63;18364627;32;20122;-68
2022/04/04 10:41:18;;;;;;;4.03;2.30;;;;;;;16.03;20.14;100792.81;18365658;32;20108;-68
2022/04/04 10:51:29;;;;;;;6.53;2.83;;;;;;;15.48;20.89;100784.97;18371766;32;20119;-67
2022/04/04 11:01:32;;;;;;;5.07;2.40;;;;;;;13.66;23.89;100761.84;18372582;32;20139;-67
2022/04/04 11:12:11;;;;;;;6.45;2.22;;;;;;;12.93;23.73;100751.03;18372633;32;20108;-67
2022/04/04 11:22:16;;;;;;;4.75;2.30;;;;;;;12.40;24.77;100741.69;18372731;32;20421;-67
2022/04/04 11:32:28;;;;;;;7.68;2.37;;;;;;;12.12;24.75;100733.06;18369607;32;20097;-67
2022/04/04 11:42:32;;;;;;;6.00;2.65;;;;;;;11.47;25.27;100734.88;18371727;32;20073;-66
2022/04/04 11:52:50;;;;;;;6.32;3.05;;;;;;;12.34;27.53;100716.41;18370505;32;20125;-66
2022/04/04 12:02:54;;;;;;;8.25;3.95;;;;;;;11.77;28.81;100706.97;18370694;32;20107;-66
2022/04/04 12:13:00;;;;;;;8.20;3.75;;;;;;;12.36;28.94;100690.22;18368361;32;20188;-68
2022/04/04 12:33:33;;;;;;;;;;;;;;;10.84;31.93;100680.87;18367668;32;20101;-67
2022/04/04 12:43:37;;;;;;;7.57;3.90;;;;;;;10.39;33.13;100652.91;18368163;32;20016;-67
2022/04/04 12:53:49;;;;;;;8.55;3.58;;;;;;;11.18;33.22;100636.47;18367530;32;20442;-67
2022/04/04 13:03:55;;;;;;;8.13;3.60;;;;;;;10.87;33.30;100626.03;18367613;32;20788;-66
2022/04/04 13:14:04;;;;;;;9.77;3.85;;;;;;;10.58;32.83;100613.81;18368050;32;20137;-66
2022/04/04 13:24:08;;;;;;;8.23;3.62;;;;;;;10.50;35.27;100605.12;18367477;32;20093;-66
2022/04/04 13:34:14;;;;;;;7.60;3.28;;;;;;;10.14;34.93;100591.97;18367436;32;20092;-66
2022/04/04 13:44:17;;;;;;;7.18;3.42;;;;;;;10.03;35.21;100576.28;18366667;32;20086;-67
2022/04/04 13:54:21;;;;;;;6.28;2.92;;;;;;;9.92;35.42;100559.72;18366754;32;20132;-66
2022/04/04 14:04:25;;;;;;;7.12;3.30;;;;;;;9.75;35.66;100551.88;18367827;32;20108;-66
2022/04/04 14:14:30;;;;;;;8.30;3.70;;;;;;;9.74;35.66;100544.91;18366660;32;20389;-66
2022/04/04 14:24:34;;;;;;;5.55;2.62;;;;;;;9.28;36.67;100531.66;18365936;32;20139;-66
2022/04/04 14:34:39;;;;;;;5.95;2.70;;;;;;;9.19;37.32;100521.19;18365399;32;20389;-67
2022/04/04 14:44:44;;;;;;;7.50;3.42;;;;;;;9.55;36.70;100513.56;18359715;32;20081;-66
2022/04/04 14:54:48;;;;;;;5.80;2.83;;;;;;;9.02;37.26;100495.06;18353574;32;20491;-66
2022/04/04 15:04:51;;;;;;;6.95;3.15;;;;;;;9.28;37.83;100489.97;18363422;32;20169;-67
2022/04/04 15:14:56;;;;;;;6.82;2.95;;;;;;;9.33;37.50;100483.94;18362947;32;20102;-67
2022/04/04 15:25:00;;;;;;;7.40;3.53;;;;;;;9.39;37.94;100466.59;18362082;32;20108;-67
2022/04/04 15:35:06;;;;;;;7.35;3.20;;;;;;;8.83;39.76;100455.91;18308290;32;20103;-67
2022/04/04 15:45:10;;;;;;;7.07;3.42;;;;;;;9.06;39.65;100441.28;18293356;32;20094;-67
2022/04/04 15:55:14;;;;;;;6.47;3.78;;;;;;;8.86;40.34;100431.62;18306545;32;20120;-67
2022/04/04 16:05:22;;;;;;;8.27;4.22;;;;;;;8.83;40.02;100429.87;18306822;32;20453;-66
2022/04/04 16:15:27;;;;;;;8.27;4.50;;;;;;;8.95;40.68;100410.84;18292940;32;20547;-67
2022/04/04 16:25:31;;;;;;;10.85;4.40;;;;;;;9.08;41.08;100400.47;18305437;32;20117;-67
2022/04/04 16:35:35;;;;;;;10.00;4.07;;;;;;;9.14;41.22;100390.09;18305849;32;20102;-67
2022/04/04 16:45:39;;;;;;;6.72;3.45;;;;;;;9.13;41.68;100376.19;18304677;32;20805;-67
2022/04/04 16:55:43;;;;;;;7.18;3.70;;;;;;;9.26;41.14;100350.19;18306618;32;20107;-67
2022/04/04 17:05:47;;;;;;;7.40;3.72;;;;;;;9.18;41.41;100337.12;18306033;32;20145;-67
2022/04/04 17:15:51;;;;;;;5.37;3.22;;;;;;;9.06;41.43;100318.87;18306201;32;20097;-67
2022/04/04 17:25:55;;;;;;;9.05;4.12;;;;;;;8.80;43.62;100319.66;18304843;32;20105;-67
2022/04/04 17:36:00;;;;;;;7.87;4.20;;;;;;;8.55;44.63;100309.16;18303856;32;20116;-67
2022/04/04 17:46:03;;;;;;;8.13;3.60;;;;;;;8.40;44.34;100310.78;18303794;32;20666;-64
2022/04/04 17:56:08;;;;;;;9.95;4.28;;;;;;;8.16;44.99;100306.31;18295931;32;20148;-64
2022/04/04 18:06:12;;;;;;;7.03;3.75;;;;;;;7.52;47.21;100291.97;18303333;32;20111;-64
2022/04/04 18:16:17;;;;;;;8.18;3.92;;;;;;;7.30;48.79;100284.00;18303257;32;20097;-64
2022/04/04 18:26:21;;;;;;;4.20;2.60;;;;;;;6.84;49.17;100284.41;18302670;32;20077;-64
2022/04/04 18:36:27;;;;;;;8.80;4.35;;;;;;;6.52;48.85;100278.84;18309129;32;20112;-64
2022/04/04 18:46:31;;;;;;;9.05;3.80;;;;;;;6.05;51.91;100268.69;18365430;32;20089;-64
2022/04/04 18:56:36;;;;;;;12.40;5.93;;;;;;;5.93;51.41;100270.25;18364776;32;20365;-64
2022/04/04 19:06:39;;;;;;;8.07;4.62;;;;;;;5.57;53.25;100258.47;18368970;32;20115;-64
2022/04/04 19:16:45;;;;;;;6.37;3.45;;;;;;;5.03;55.34;100250.66;18372119;32;20442;-64
2022/04/04 19:26:48;;;;;;;8.13;3.37;;;;;;;4.43;57.23;100240.03;18373363;32;20163;-64
2022/04/04 19:36:53;;;;;;;7.35;3.75;;;;;;;4.16;58.31;100225.69;18372437;32;20115;-63
2022/04/04 19:46:56;;;;;;;5.75;3.08;;;;;;;3.81;57.84;100215.47;18365215;32;20112;-64
2022/04/04 19:57:01;;;;;;;7.60;3.37;;;;;;;3.47;60.52;100210.41;18370022;32;20109;-64
2022/04/04 20:07:04;;;;;;;5.95;3.80;;;;;;;3.40;60.52;100195.63;18370013;32;20097;-64
2022/04/04 20:17:12;;;;;;;6.82;3.50;;;;;;;3.34;60.54;100175.69;18369101;32;20119;-63
2022/04/04 20:27:15;;;;;;;6.80;4.32;;;;;;;2.91;62.00;100171.22;18369522;32;20093;-64
2022/04/04 20:37:20;;;;;;;8.40;3.42;;;;;;;2.98;61.76;100148.19;18368376;32;20348;-64
2022/04/04 20:47:24;;;;;;;8.18;3.92;;;;;;;2.66;62.71;100137.94;18369508;32;20117;-64
2022/04/04 20:57:28;;;;;;;8.68;4.62;;;;;;;2.72;62.68;100130.34;18369967;32;20101;-64
2022/04/04 21:07:32;;;;;;;13.95;5.30;;;;;;;2.95;61.78;100119.75;18354397;32;20111;-64
2022/04/04 21:17:38;;;;;;;9.68;4.78;;;;;;;2.94;61.81;100105.97;18368197;32;20181;-64
2022/04/04 21:27:41;;;;;;;10.10;5.20;;;;;;;2.96;62.63;100096.56;18366674;32;20093;-64
2022/04/04 21:37:45;;;;;;;11.80;4.75;;;;;;;2.83;63.03;100089.38;18368119;32;20144;-64
2022/04/04 21:47:49;;;;;;;8.48;4.68;;;;;;;2.76;63.37;100083.19;18368372;32;20108;-64
2022/04/04 21:57:54;;;;;;;8.75;4.80;;;;;;;3.04;63.71;100076.12;18368995;32;20116;-64
2022/04/04 22:07:58;;;;;;;9.50;4.45;;;;;;;3.22;63.03;100067.03;18367598;32;20504;-64
2022/04/04 22:18:03;;;;;;;11.82;6.05;;;;;;;3.66;61.95;100059.38;18366856;32;20475;-64
2022/04/04 22:28:06;;;;;;;11.43;4.55;;;;;;;3.99;62.54;100034.19;18366639;32;20124;-64
2022/04/04 22:38:10;;;;;;;13.20;5.72;;;;;;;5.23;57.73;100033.59;18370580;32;20153;-64
2022/04/04 22:48:17;;;;;;;10.38;5.32;;;;;;;5.50;56.79;100026.16;18387559;32;20094;-64
2022/04/04 22:58:21;;;;;;;10.75;5.80;;;;;;;5.05;56.86;100029.06;18386167;32;20088;-64
2022/04/04 23:08:25;;;;;;;12.57;5.75;;;;;;;5.50;56.69;100018.41;18384882;32;20093;-64
2022/04/04 23:18:30;;;;;;;8.77;4.72;;;;;;;5.86;55.21;100009.34;18385872;32;20336;-64
2022/04/04 23:28:33;;;;;;;9.57;4.45;;;;;;;5.54;56.84;99999.50;18385586;32;20093;-64
2022/04/04 23:38:37;;;;;;;10.07;4.37;;;;;;;5.13;56.79;100006.75;18384230;32;20101;-64
2022/04/04 23:48:41;;;;;;;13.07;5.78;;;;;;;5.08;56.28;99982.50;18380954;32;20121;-64
2022/04/04 23:58:45;;;;;;;9.75;5.47;;;;;;;5.27;55.93;99957.75;18371229;32;20127;-64
